createdAt,value
2023-04-19T00:02:13.352Z,8.44
2023-04-19T00:04:40.314Z,8.41
2023-04-19T00:07:09.515Z,8.38
2023-04-19T00:09:35.954Z,8.37
2023-04-19T00:12:03.389Z,8.32
2023-04-19T00:14:29.841Z,8.29
2023-04-19T00:16:56.422Z,8.29
2023-04-19T00:19:23.208Z,8.28
2023-04-19T00:21:49.718Z,8.25
2023-04-19T00:24:16.305Z,8.30
2023-04-19T00:26:42.913Z,8.30
2023-04-19T00:29:09.626Z,8.31
2023-04-19T00:31:39.710Z,8.28
2023-04-19T00:34:06.687Z,8.24
2023-04-19T00:36:33.240Z,8.23
2023-04-19T00:38:59.685Z,8.20
2023-04-19T00:41:26.173Z,8.18
2023-04-19T00:43:59.113Z,8.14
2023-04-19T00:46:26.070Z,8.06
2023-04-19T00:48:52.739Z,8.01
2023-04-19T00:51:20.002Z,7.90
2023-04-19T00:53:46.672Z,7.83
2023-04-19T00:56:14.710Z,7.81
2023-04-19T00:58:41.362Z,7.76
2023-04-19T01:01:07.919Z,7.76
2023-04-19T01:03:35.085Z,7.59
2023-04-19T01:06:02.124Z,7.41
2023-04-19T01:08:28.645Z,7.31
2023-04-19T01:10:58.349Z,7.26
2023-04-19T01:13:31.184Z,7.23
2023-04-19T01:15:58.014Z,7.07
2023-04-19T01:18:25.621Z,6.99
2023-04-19T01:20:52.825Z,6.98
2023-04-19T01:23:22.069Z,6.93
2023-04-19T01:25:48.524Z,6.79
2023-04-19T01:28:15.001Z,6.74
2023-04-19T01:30:41.556Z,6.67
2023-04-19T01:33:08.030Z,6.57
2023-04-19T01:35:34.504Z,6.56
2023-04-19T01:38:02.049Z,6.54
2023-04-19T01:40:31.047Z,6.52
2023-04-19T01:43:00.331Z,6.47
2023-04-19T01:45:28.708Z,6.46
2023-04-19T01:47:56.104Z,6.49
2023-04-19T01:50:22.613Z,6.47
2023-04-19T01:52:49.116Z,6.47
2023-04-19T01:55:15.728Z,6.40
2023-04-19T01:57:42.264Z,6.34
2023-04-19T02:00:09.443Z,6.30
2023-04-19T02:02:37.907Z,6.32
2023-04-19T02:05:06.698Z,6.26
2023-04-19T02:07:33.209Z,6.21
2023-04-19T02:10:00.262Z,6.17
2023-04-19T02:12:28.833Z,6.13
2023-04-19T02:14:59.536Z,6.13
2023-04-19T02:17:26.593Z,6.16
2023-04-19T02:19:55.949Z,6.19
2023-04-19T02:22:22.452Z,6.16
2023-04-19T02:24:50.776Z,6.17
2023-04-19T02:27:17.797Z,6.21
2023-04-19T02:29:44.722Z,6.20
2023-04-19T02:32:14.212Z,6.14
2023-04-19T02:34:40.748Z,6.15
2023-04-19T02:37:07.254Z,6.17
2023-04-19T02:39:34.365Z,6.15
2023-04-19T02:42:01.399Z,6.12
2023-04-19T02:44:28.016Z,6.05
2023-04-19T02:46:57.705Z,6.01
2023-04-19T02:49:24.257Z,5.99
2023-04-19T02:51:52.697Z,5.93
2023-04-19T02:54:19.235Z,5.80
2023-04-19T02:56:45.730Z,5.78
2023-04-19T02:59:12.245Z,5.66
2023-04-19T03:01:38.689Z,5.68
2023-04-19T03:04:05.393Z,5.60
2023-04-19T03:06:31.987Z,5.54
2023-04-19T03:08:58.477Z,5.54
2023-04-19T03:11:24.951Z,5.49
2023-04-19T03:13:54.223Z,5.42
2023-04-19T03:16:21.335Z,5.36
2023-04-19T03:18:49.447Z,5.36
2023-04-19T03:21:16.207Z,5.32
2023-04-19T03:23:42.826Z,5.26
2023-04-19T03:26:09.305Z,5.29
2023-04-19T03:28:35.727Z,5.22
2023-04-19T03:31:02.898Z,5.16
2023-04-19T03:33:29.459Z,5.15
2023-04-19T03:35:55.959Z,5.06
2023-04-19T03:38:22.433Z,5.02
2023-04-19T03:40:48.921Z,5.03
2023-04-19T03:43:15.428Z,5.06
2023-04-19T03:45:41.977Z,4.99
2023-04-19T03:48:08.471Z,5.02
2023-04-19T03:50:35.025Z,4.91
2023-04-19T03:53:04.596Z,4.92
2023-04-19T03:55:31.381Z,5.09
2023-04-19T03:57:57.957Z,5.06
2023-04-19T04:00:24.611Z,4.77
2023-04-19T04:02:51.225Z,4.68
2023-04-19T04:05:17.919Z,4.83
2023-04-19T04:07:44.474Z,4.75
2023-04-19T04:10:11.031Z,4.66
2023-04-19T04:12:37.464Z,4.84
2023-04-19T04:15:05.022Z,4.69
2023-04-19T04:17:31.535Z,4.65
2023-04-19T04:19:58.068Z,4.55
2023-04-19T04:22:24.573Z,4.67
2023-04-19T04:24:51.094Z,4.68
2023-04-19T04:27:21.128Z,4.72
2023-04-19T04:29:49.204Z,4.76
2023-04-19T04:32:18.162Z,4.71
2023-04-19T04:34:44.704Z,4.88
2023-04-19T04:37:11.783Z,4.99
2023-04-19T04:39:39.765Z,4.87
2023-04-19T04:42:08.875Z,4.92
2023-04-19T04:44:36.288Z,4.90
2023-04-19T04:47:03.282Z,4.98
2023-04-19T04:49:30.476Z,5.07
2023-04-19T04:52:00.137Z,5.05
2023-04-19T04:54:28.652Z,5.04
2023-04-19T04:56:55.331Z,5.11
2023-04-19T04:59:21.844Z,5.09
2023-04-19T05:01:48.378Z,5.17
2023-04-19T05:04:15.351Z,5.25
2023-04-19T05:06:42.274Z,5.39
2023-04-19T05:09:08.757Z,5.54
2023-04-19T05:11:35.375Z,5.71
2023-04-19T05:14:02.480Z,5.79
2023-04-19T05:16:29.482Z,5.99
2023-04-19T05:18:56.085Z,5.90
2023-04-19T05:21:22.746Z,6.06
2023-04-19T05:23:49.192Z,6.18
2023-04-19T05:26:15.869Z,6.18
2023-04-19T05:28:43.512Z,6.18
2023-04-19T05:31:10.082Z,6.14
2023-04-19T05:33:36.628Z,6.25
2023-04-19T05:36:03.386Z,6.32
2023-04-19T05:38:29.917Z,6.34
2023-04-19T05:40:56.411Z,6.59
2023-04-19T05:43:22.869Z,6.57
2023-04-19T05:45:49.490Z,6.51
2023-04-19T05:48:16.070Z,6.52
2023-04-19T05:50:42.520Z,6.55
2023-04-19T05:53:09.005Z,6.57
2023-04-19T05:55:35.687Z,6.72
2023-04-19T05:58:02.241Z,6.79
2023-04-19T06:00:28.812Z,6.84
2023-04-19T06:02:55.464Z,6.73
2023-04-19T06:05:22.641Z,6.71
2023-04-19T06:07:55.180Z,6.87
2023-04-19T06:10:34.315Z,6.83
2023-04-19T06:13:15.390Z,6.67
2023-04-19T06:15:42.065Z,6.79
2023-04-19T06:18:18.995Z,6.81
2023-04-19T06:20:46.801Z,6.79
2023-04-19T06:23:14.814Z,6.84
2023-04-19T06:25:41.711Z,6.86
2023-04-19T06:28:08.224Z,6.78
2023-04-19T06:30:34.762Z,6.67
2023-04-19T06:33:01.264Z,6.64
2023-04-19T06:35:27.845Z,6.62
2023-04-19T06:37:54.340Z,6.63
2023-04-19T06:40:20.982Z,6.68
2023-04-19T06:42:47.505Z,6.66
2023-04-19T06:45:15.155Z,6.73
2023-04-19T06:47:41.766Z,6.52
2023-04-19T06:50:08.881Z,6.46
2023-04-19T06:52:35.381Z,6.35
2023-04-19T06:55:01.891Z,6.60
2023-04-19T06:57:28.355Z,6.61
2023-04-19T06:59:55.625Z,6.67
2023-04-19T07:02:22.201Z,6.78
2023-04-19T07:04:48.900Z,6.83
2023-04-19T07:07:15.639Z,6.81
2023-04-19T07:09:42.375Z,6.85
2023-04-19T07:12:08.964Z,6.85
2023-04-19T07:14:35.520Z,6.85
2023-04-19T07:17:04.307Z,6.79
2023-04-19T07:19:31.378Z,6.79
2023-04-19T07:21:57.971Z,6.72
2023-04-19T07:24:26.136Z,6.71
2023-04-19T07:26:52.643Z,6.79
2023-04-19T07:29:19.221Z,7.04
2023-04-19T07:31:48.671Z,7.10
2023-04-19T07:34:15.462Z,7.12
2023-04-19T07:36:43.520Z,7.19
2023-04-19T07:39:10.058Z,7.18
2023-04-19T07:41:36.738Z,7.36
2023-04-19T07:44:06.714Z,7.45
2023-04-19T07:46:33.306Z,7.53
2023-04-19T07:48:59.785Z,7.73
2023-04-19T07:51:26.467Z,7.92
2023-04-19T07:53:52.936Z,7.61
2023-04-19T07:56:22.620Z,7.80
2023-04-19T07:59:04.295Z,8.07
2023-04-19T08:01:33.990Z,8.08
2023-04-19T08:04:01.089Z,8.01
2023-04-19T08:06:29.681Z,8.27
2023-04-19T08:08:56.449Z,8.18
2023-04-19T08:11:25.082Z,8.15
2023-04-19T08:14:04.604Z,8.43
2023-04-19T08:17:14.678Z,8.46
2023-04-19T08:19:19.719Z,8.56
2023-04-19T08:21:46.418Z,8.81
2023-04-19T08:24:12.904Z,8.68
2023-04-19T08:26:39.371Z,8.77
2023-04-19T08:29:05.876Z,8.93
2023-04-19T08:31:32.578Z,8.79
2023-04-19T08:34:00.489Z,8.73
2023-04-19T08:36:39.197Z,8.84
2023-04-19T08:39:20.931Z,9.02
2023-04-19T08:42:08.498Z,9.05
2023-04-19T08:44:54.300Z,9.02
2023-04-19T08:47:33.519Z,9.12
2023-04-19T08:52:39.125Z,9.35
2023-04-19T08:55:11.242Z,9.60
2023-04-19T08:57:39.454Z,9.59
2023-04-19T09:00:11.295Z,9.70
2023-04-19T09:02:52.081Z,9.91
2023-04-19T09:05:19.647Z,10.02
2023-04-19T09:07:47.029Z,9.88
2023-04-19T09:10:16.048Z,9.91
2023-04-19T09:12:43.159Z,9.97
2023-04-19T09:15:10.753Z,10.11
2023-04-19T09:17:39.134Z,10.16
2023-04-19T09:20:06.783Z,10.29
2023-04-19T09:22:33.593Z,10.30
2023-04-19T09:27:33.015Z,10.22
2023-04-19T09:30:01.188Z,10.32
2023-04-19T09:32:28.662Z,10.54
2023-04-19T09:34:57.459Z,10.49
2023-04-19T09:37:39.144Z,10.75
2023-04-19T09:40:25.213Z,10.71
2023-04-19T09:45:30.043Z,10.69
2023-04-19T09:48:07.784Z,10.87
2023-04-19T09:50:50.422Z,11.09
2023-04-19T09:53:23.438Z,11.23
2023-04-19T09:56:00.346Z,11.23
2023-04-19T09:58:34.297Z,11.20
2023-04-19T10:01:14.292Z,10.98
2023-04-19T10:03:49.298Z,11.04
2023-04-19T10:06:33.194Z,11.18
2023-04-19T10:09:04.765Z,11.33
2023-04-19T10:11:40.204Z,11.12
2023-04-19T10:14:08.941Z,10.81
2023-04-19T10:16:37.001Z,10.79
2023-04-19T10:19:10.214Z,11.12
2023-04-19T10:21:38.297Z,11.26
2023-04-19T10:24:05.741Z,11.38
2023-04-19T10:27:13.632Z,11.31
2023-04-19T10:30:03.909Z,11.29
2023-04-19T10:32:42.420Z,11.32
2023-04-19T10:35:23.784Z,11.41
2023-04-19T10:38:07.741Z,11.57
2023-04-19T10:40:52.852Z,11.55
2023-04-19T10:43:19.856Z,11.62
2023-04-19T10:45:47.261Z,11.57
2023-04-19T10:48:35.194Z,11.61
2023-04-19T10:51:14.979Z,11.52
2023-04-19T10:53:45.893Z,11.55
2023-04-19T10:56:12.748Z,11.53
2023-04-19T10:59:01.252Z,11.67
2023-04-19T11:01:40.276Z,11.60
2023-04-19T11:04:08.989Z,11.67
2023-04-19T11:06:56.354Z,11.67
2023-04-19T11:09:34.561Z,11.58
2023-04-19T11:12:15.646Z,11.74
2023-04-19T11:14:51.078Z,11.72
2023-04-19T11:17:25.936Z,11.81
2023-04-19T11:20:02.232Z,12.09
2023-04-19T11:22:34.036Z,12.21
2023-04-19T11:25:06.234Z,12.37
2023-04-19T11:27:34.100Z,12.11
2023-04-19T11:30:21.537Z,11.72
2023-04-19T11:32:49.859Z,11.48
2023-04-19T11:35:20.748Z,11.20
2023-04-19T11:37:47.323Z,11.08
2023-04-19T11:40:18.416Z,11.25
2023-04-19T11:42:45.723Z,11.38
2023-04-19T11:45:29.422Z,11.81
2023-04-19T11:47:57.903Z,11.85
2023-04-19T11:50:39.283Z,12.06
2023-04-19T11:53:32.940Z,12.22
2023-04-19T11:56:07.050Z,12.33
2023-04-19T11:58:44.540Z,12.57
2023-04-19T12:01:13.468Z,12.65
2023-04-19T12:03:57.616Z,12.29
2023-04-19T12:06:29.787Z,12.14
2023-04-19T12:08:56.635Z,12.45
2023-04-19T12:11:29.486Z,12.12
2023-04-19T12:14:12.426Z,11.68
2023-04-19T12:16:39.027Z,11.15
2023-04-19T12:19:17.426Z,11.67
2023-04-19T12:21:45.389Z,11.85
2023-04-19T12:24:14.750Z,11.55
2023-04-19T12:26:56.783Z,11.95
2023-04-19T12:29:23.447Z,12.20
2023-04-19T12:31:49.969Z,12.20
2023-04-19T12:34:16.590Z,12.40
2023-04-19T12:36:43.125Z,12.24
2023-04-19T12:39:09.783Z,11.88
2023-04-19T12:41:36.338Z,11.89
2023-04-19T12:44:03.031Z,11.68
2023-04-19T12:46:29.843Z,11.42
2023-04-19T12:48:56.390Z,11.32
2023-04-19T12:51:22.865Z,11.36
2023-04-19T12:53:50.425Z,11.32
2023-04-19T12:56:18.048Z,11.97
2023-04-19T12:58:44.738Z,12.06
2023-04-19T13:01:11.460Z,11.68
2023-04-19T13:03:38.250Z,11.55
2023-04-19T13:06:05.849Z,11.47
2023-04-19T13:08:43.441Z,11.92
2023-04-19T13:11:12.596Z,12.24
2023-04-19T13:13:39.104Z,12.37
2023-04-19T13:16:06.454Z,11.80
2023-04-19T13:18:32.933Z,11.46
2023-04-19T13:20:59.399Z,11.85
2023-04-19T13:23:28.766Z,12.10
2023-04-19T13:25:55.324Z,12.16
2023-04-19T13:28:21.777Z,11.85
2023-04-19T13:30:48.335Z,11.52
2023-04-19T13:33:17.849Z,11.37
2023-04-19T13:35:47.669Z,11.49
2023-04-19T13:38:14.167Z,11.66
2023-04-19T13:40:40.689Z,11.88
2023-04-19T13:43:07.172Z,12.09
2023-04-19T13:45:33.707Z,12.08
2023-04-19T13:48:00.251Z,12.02
2023-04-19T13:50:26.850Z,11.78
2023-04-19T13:52:53.353Z,11.57
2023-04-19T13:55:19.844Z,11.48
2023-04-19T13:57:46.363Z,11.38
2023-04-19T14:00:13.394Z,11.39
2023-04-19T14:02:45.641Z,11.32
2023-04-19T14:05:12.333Z,11.25
2023-04-19T14:07:42.093Z,11.33
2023-04-19T14:10:09.829Z,11.36
2023-04-19T14:12:36.383Z,11.42
2023-04-19T14:15:03.329Z,11.42
2023-04-19T14:17:29.856Z,11.41
2023-04-19T14:19:56.873Z,11.46
2023-04-19T14:22:23.346Z,11.60
2023-04-19T14:24:49.822Z,11.67
2023-04-19T14:27:16.283Z,11.81
2023-04-19T14:29:42.739Z,11.89
2023-04-19T14:32:24.369Z,11.78
2023-04-19T14:34:53.435Z,11.66
2023-04-19T14:37:21.829Z,11.56
2023-04-19T14:39:48.347Z,11.38
2023-04-19T14:42:14.914Z,11.25
2023-04-19T14:44:41.575Z,11.48
2023-04-19T14:47:08.151Z,11.67
2023-04-19T14:49:34.715Z,11.78
2023-04-19T14:52:04.132Z,11.81
2023-04-19T14:54:30.731Z,11.95
2023-04-19T14:56:57.264Z,11.74
2023-04-19T14:59:23.708Z,11.46
2023-04-19T15:01:50.256Z,11.24
2023-04-19T15:04:16.875Z,11.13
2023-04-19T15:06:43.510Z,11.19
2023-04-19T15:09:10.328Z,11.50
2023-04-19T15:11:37.082Z,11.52
2023-04-19T15:14:03.553Z,11.36
2023-04-19T15:16:30.224Z,11.37
2023-04-19T15:18:57.144Z,11.29
2023-04-19T15:21:24.812Z,11.28
2023-04-19T15:23:51.527Z,11.48
2023-04-19T15:26:18.133Z,11.65
2023-04-19T15:28:44.669Z,11.56
2023-04-19T15:31:11.359Z,11.63
2023-04-19T15:33:38.093Z,11.54
2023-04-19T15:36:04.865Z,11.50
2023-04-19T15:38:32.301Z,11.48
2023-04-19T15:41:00.657Z,11.33
2023-04-19T15:43:27.425Z,11.43
2023-04-19T15:45:53.987Z,11.65
2023-04-19T15:48:20.867Z,11.73
2023-04-19T15:50:50.678Z,11.49
2023-04-19T15:53:20.006Z,11.33
2023-04-19T15:55:47.960Z,11.29
2023-04-19T15:58:15.276Z,11.24
2023-04-19T16:00:41.717Z,11.16
2023-04-19T16:03:09.568Z,11.12
2023-04-19T16:05:36.185Z,10.95
2023-04-19T16:08:04.814Z,10.99
2023-04-19T16:10:31.594Z,10.95
2023-04-19T16:12:58.145Z,10.88
2023-04-19T16:15:28.428Z,10.87
2023-04-19T16:17:55.246Z,10.89
2023-04-19T16:20:21.847Z,10.84
2023-04-19T16:22:48.539Z,10.81
2023-04-19T16:25:16.210Z,10.84
2023-04-19T16:27:44.209Z,10.92
2023-04-19T16:30:12.292Z,10.95
2023-04-19T16:32:38.992Z,11.02
2023-04-19T16:35:07.018Z,11.06
2023-04-19T16:37:33.840Z,11.10
2023-04-19T16:40:04.671Z,11.16
2023-04-19T16:42:31.391Z,11.30
2023-04-19T16:44:57.858Z,11.27
2023-04-19T16:47:24.382Z,11.17
2023-04-19T16:49:50.913Z,11.16
2023-04-19T16:52:17.610Z,11.15
2023-04-19T16:54:44.825Z,11.08
2023-04-19T16:57:11.587Z,11.01
2023-04-19T16:59:38.154Z,10.99
2023-04-19T17:02:07.440Z,10.92
2023-04-19T17:04:34.397Z,10.83
2023-04-19T17:07:01.103Z,10.76
2023-04-19T17:09:30.856Z,10.71
2023-04-19T17:11:57.796Z,10.64
2023-04-19T17:14:24.367Z,10.54
2023-04-19T17:16:50.916Z,10.54
2023-04-19T17:19:17.742Z,10.52
2023-04-19T17:21:44.583Z,10.41
2023-04-19T17:24:11.285Z,10.31
2023-04-19T17:26:37.934Z,10.21
2023-04-19T17:29:04.752Z,10.19
2023-04-19T17:31:31.414Z,10.17
2023-04-19T17:33:57.944Z,10.14
2023-04-19T17:36:24.633Z,10.09
2023-04-19T17:38:51.282Z,10.05
2023-04-19T17:41:20.684Z,10.03
2023-04-19T17:43:47.877Z,10.04
2023-04-19T17:46:14.868Z,9.99
2023-04-19T17:48:41.879Z,10.04
2023-04-19T17:51:08.553Z,9.99
2023-04-19T17:53:35.117Z,9.94
2023-04-19T17:56:05.338Z,9.93
2023-04-19T17:58:31.890Z,9.83
2023-04-19T18:00:58.418Z,9.75
2023-04-19T18:03:25.223Z,9.72
2023-04-19T18:05:51.807Z,9.71
2023-04-19T18:08:18.304Z,9.65
2023-04-19T18:10:44.745Z,9.54
2023-04-19T18:13:14.101Z,9.47
2023-04-19T18:15:40.569Z,9.45
2023-04-19T18:18:07.146Z,9.41
2023-04-19T18:20:33.703Z,9.31
2023-04-19T18:23:01.518Z,9.35
2023-04-19T18:25:31.189Z,9.39
2023-04-19T18:27:57.635Z,9.48
2023-04-19T18:30:24.139Z,9.35
2023-04-19T18:32:50.638Z,9.23
2023-04-19T18:35:17.279Z,9.08
2023-04-19T18:37:43.756Z,9.04
2023-04-19T18:40:11.289Z,9.07
2023-04-19T18:42:37.778Z,9.00
2023-04-19T18:45:04.580Z,9.04
2023-04-19T18:47:31.315Z,9.21
2023-04-19T18:50:05.428Z,9.20
2023-04-19T18:52:35.411Z,9.07
2023-04-19T18:55:02.744Z,9.12
2023-04-19T18:57:30.602Z,9.03
2023-04-19T19:00:00.999Z,8.85
2023-04-19T19:02:27.892Z,8.70
2023-04-19T19:04:58.408Z,8.76
2023-04-19T19:07:36.245Z,8.66
2023-04-19T19:10:16.832Z,8.58
2023-04-19T19:12:44.658Z,8.57
2023-04-19T19:15:11.242Z,8.48
2023-04-19T19:17:38.065Z,8.53
2023-04-19T19:20:06.813Z,8.56
2023-04-19T19:22:34.089Z,8.52
2023-04-19T19:25:01.205Z,8.42
2023-04-19T19:27:27.968Z,8.42
2023-04-19T19:29:54.856Z,8.36
2023-04-19T19:32:21.415Z,8.27
2023-04-19T19:37:18.250Z,7.95
2023-04-19T19:39:45.612Z,7.67
2023-04-19T19:42:16.229Z,7.37
2023-04-19T19:44:43.037Z,7.17
2023-04-19T19:47:10.958Z,7.03
2023-04-19T19:52:07.460Z,6.94
2023-04-19T19:54:33.994Z,6.91
2023-04-19T19:57:48.429Z,6.93
2023-04-19T19:59:54.561Z,6.82
2023-04-19T20:02:24.474Z,6.79
2023-04-19T20:04:51.430Z,6.77
2023-04-19T20:07:37.247Z,6.77
2023-04-19T20:10:10.998Z,6.77
2023-04-19T20:12:43.181Z,6.67
2023-04-19T20:15:11.978Z,6.45
2023-04-19T20:17:40.378Z,6.25
2023-04-19T20:20:17.355Z,6.10
2023-04-19T20:22:48.067Z,6.06
2023-04-19T20:25:15.208Z,5.99
2023-04-19T20:27:41.809Z,5.87
2023-04-19T20:30:09.163Z,5.76
2023-04-19T20:32:36.558Z,5.73
2023-04-19T20:35:12.699Z,5.70
2023-04-19T20:37:42.820Z,5.66
2023-04-19T20:40:12.115Z,5.62
2023-04-19T20:42:38.783Z,5.62
2023-04-19T20:45:15.082Z,5.56
2023-04-19T20:47:42.724Z,5.55
2023-04-19T20:50:12.569Z,5.53
2023-04-19T20:52:39.206Z,5.48
2023-04-19T20:55:06.462Z,5.50
2023-04-19T20:57:36.030Z,5.49
2023-04-19T21:00:02.602Z,5.48
2023-04-19T21:02:29.251Z,5.45
2023-04-19T21:04:56.035Z,5.42
2023-04-19T21:07:25.900Z,5.42
2023-04-19T21:09:52.359Z,5.46
2023-04-19T21:12:18.853Z,5.43
2023-04-19T21:14:48.596Z,5.39
2023-04-19T21:17:16.018Z,5.44
2023-04-19T21:19:42.495Z,5.45
2023-04-19T21:22:12.034Z,5.45
2023-04-19T21:24:38.473Z,5.48
2023-04-19T21:27:05.200Z,5.50
2023-04-19T21:29:31.662Z,5.53
2023-04-19T21:31:58.254Z,5.57
2023-04-19T21:34:24.761Z,5.60
2023-04-19T21:36:51.327Z,5.63
2023-04-19T21:39:17.988Z,5.62
2023-04-19T21:41:44.612Z,5.60
2023-04-19T21:44:11.095Z,5.61
2023-04-19T21:46:38.502Z,5.61
2023-04-19T21:49:05.054Z,5.62
2023-04-19T21:51:41.258Z,5.58
2023-04-19T21:54:10.732Z,5.64
2023-04-19T21:56:38.162Z,5.60
2023-04-19T21:59:04.742Z,5.60
2023-04-19T22:01:31.212Z,5.55
2023-04-19T22:03:58.871Z,5.43
2023-04-19T22:06:25.666Z,5.55
2023-04-19T22:08:52.383Z,5.57
2023-04-19T22:11:19.995Z,5.54
2023-04-19T22:13:47.043Z,5.54
2023-04-19T22:16:14.978Z,5.56
2023-04-19T22:18:46.241Z,5.57
2023-04-19T22:21:14.377Z,5.62
2023-04-19T22:23:40.865Z,5.51
2023-04-19T22:26:07.302Z,5.51
2023-04-19T22:28:35.956Z,5.57
2023-04-19T22:31:02.433Z,5.59
2023-04-19T22:33:28.893Z,5.54
2023-04-19T22:35:56.492Z,5.58
2023-04-19T22:38:25.049Z,5.65
2023-04-19T22:40:51.486Z,5.66
2023-04-19T22:43:17.998Z,5.59
2023-04-19T22:45:47.751Z,5.62
2023-04-19T22:48:14.896Z,5.67
2023-04-19T22:50:44.270Z,5.68
2023-04-19T22:53:12.659Z,5.71
2023-04-19T22:55:43.406Z,5.68
2023-04-19T22:58:12.933Z,5.66
2023-04-19T23:00:39.493Z,5.63
2023-04-19T23:03:07.017Z,5.65
2023-04-19T23:05:33.652Z,5.62
2023-04-19T23:08:00.222Z,5.69
2023-04-19T23:10:27.036Z,5.74
2023-04-19T23:12:57.303Z,5.68
2023-04-19T23:15:29.499Z,5.58
2023-04-19T23:17:56.538Z,5.57
2023-04-19T23:20:23.344Z,5.53
2023-04-19T23:22:49.768Z,5.49
2023-04-19T23:25:16.475Z,5.46
2023-04-19T23:27:42.909Z,5.44
2023-04-19T23:30:09.701Z,5.44
2023-04-19T23:32:36.267Z,5.46
2023-04-19T23:35:09.179Z,5.37
2023-04-19T23:37:39.365Z,5.40
2023-04-19T23:40:06.687Z,5.39
2023-04-19T23:42:33.505Z,5.33
2023-04-19T23:45:00.007Z,5.31
2023-04-19T23:47:26.607Z,5.24
2023-04-19T23:49:53.110Z,5.25
2023-04-19T23:52:22.544Z,5.22
2023-04-19T23:54:53.016Z,5.14
2023-04-19T23:57:19.578Z,5.19
2023-04-19T23:59:46.076Z,5.19
